Sao Francisco, Brazil
Current Conditions -  °F | °C
As of 4:00 PM on Saturday 20 Dec 2014 (Local Time) from SBMK Reporting Station
Scattered Clouds Scattered Clouds  
Wind Chill: 86°   Ceiling: Unl
Heat Index: 87°   Visibility: 6mi
Dew Point: 64°   Wind: 9mph
Humidity: 48%   Direction: 30°NNE
Pressure: 29.88"   Gusts: NA
Location:  15.95°S, 44.86°W
Report Text: SBMK 201800Z 03008KT 340V080 9999 SCT040 FEW045TCU 30/18 Q1012
Loading
Personal Weather Stations






























Interactive Weather Map New forecast layout! Learn more

10-Day Weather Forecast

Advertisements
Track Severe Weather on mobile